Time;durP1;ratioP1;P1;durP2;ratioP2;P2;SDS_P1;SDS_P2;PMS_P1;PMS_P2;Temp;Humidity;BMP_temperature;BMP_pressure;BME280_temperature;BME280_humidity;BME280_pressure;Samples;Min_cycle;Max_cycle;Signal;HPM_P1;HPM_P2
2022/04/03 00:01:50;;;;;;;15.93;7.05;;;;;;;8.29;100.00;97777.32;1750575;82;21077;-72
2022/04/03 00:04:19;;;;;;;13.15;6.50;;;;;;;8.29;100.00;97774.63;1751591;82;21081;-72
2022/04/03 00:06:46;;;;;;;18.02;7.50;;;;;;;8.28;100.00;97772.14;1750332;82;21111;-71
2022/04/03 00:09:15;;;;;;;14.28;6.90;;;;;;;8.23;100.00;97773.30;1779721;80;21022;-71
2022/04/03 00:11:42;;;;;;;13.28;7.15;;;;;;;8.20;100.00;97775.05;1778935;80;21005;-70
2022/04/03 00:14:11;;;;;;;13.80;7.53;;;;;;;8.16;100.00;97778.19;1750382;82;21006;-70
2022/04/03 00:16:39;;;;;;;17.12;7.83;;;;;;;8.13;100.00;97793.41;1778250;80;21025;-71
2022/04/03 00:19:07;;;;;;;16.30;7.60;;;;;;;8.10;100.00;97799.20;1750243;82;21483;-71
2022/04/03 00:21:37;;;;;;;17.67;8.28;;;;;;;8.10;100.00;97801.90;1747686;82;21416;-72
2022/04/03 00:24:05;;;;;;;14.43;7.37;;;;;;;8.10;100.00;97809.97;1778977;79;21072;-71
2022/04/03 00:26:32;;;;;;;12.95;6.95;;;;;;;8.10;100.00;97807.81;1777779;80;21131;-70
2022/04/03 00:29:00;;;;;;;15.03;7.28;;;;;;;8.08;100.00;97816.09;1751576;82;21107;-71
2022/04/03 00:31:27;;;;;;;11.70;6.03;;;;;;;8.07;100.00;97823.02;1750171;82;21088;-71
2022/04/03 00:33:54;;;;;;;9.23;5.60;;;;;;;8.05;100.00;97833.17;1754234;82;21005;-71
2022/04/03 00:36:21;;;;;;;7.92;4.92;;;;;;;8.03;100.00;97829.88;1780127;79;21013;-71
2022/04/03 00:38:49;;;;;;;8.65;4.50;;;;;;;8.01;100.00;97838.67;1780328;80;21046;-70
2022/04/03 00:41:17;;;;;;;6.78;4.40;;;;;;;7.98;100.00;97827.80;1752788;82;21049;-71
2022/04/03 00:43:45;;;;;;;5.05;4.30;;;;;;;7.97;100.00;97827.50;1779254;79;21463;-71
2022/04/03 00:46:13;;;;;;;4.85;3.55;;;;;;;7.92;100.00;97824.08;1750410;82;21534;-72
2022/04/03 00:48:40;;;;;;;5.90;4.17;;;;;;;7.88;100.00;97824.69;1749756;82;21029;-70
2022/04/03 00:51:11;;;;;;;6.17;4.03;;;;;;;7.88;100.00;97826.03;1750457;82;21038;-70
2022/04/03 00:53:38;;;;;;;6.30;4.30;;;;;;;7.86;100.00;97830.30;1734410;81;21058;-71
2022/04/03 00:56:06;;;;;;;6.85;4.30;;;;;;;7.85;100.00;97821.09;1761347;80;21079;-70
2022/04/03 00:58:33;;;;;;;4.40;3.67;;;;;;;7.83;100.00;97811.88;1753141;81;21036;-71
2022/04/03 01:01:02;;;;;;;5.35;4.20;;;;;;;7.84;100.00;97804.63;1777555;80;21078;-71
2022/04/03 01:03:30;;;;;;;9.40;4.77;;;;;;;7.81;100.00;97804.54;1775679;81;21108;-71
2022/04/03 01:05:57;;;;;;;6.77;4.27;;;;;;;7.78;100.00;97804.95;1776909;80;21056;-70
2022/04/03 01:08:27;;;;;;;6.87;4.47;;;;;;;7.75;100.00;97806.70;1779030;80;21072;-70
2022/04/03 01:10:54;;;;;;;6.97;4.70;;;;;;;7.73;100.00;97804.73;1749552;81;21543;-72
2022/04/03 01:13:22;;;;;;;7.08;4.10;;;;;;;7.71;100.00;97800.91;1776280;81;21040;-72
2022/04/03 01:15:59;;;;;;;7.10;4.40;;;;;;;7.69;100.00;97810.23;1746747;81;21537;-71
2022/04/03 01:18:26;;;;;;;5.72;3.95;;;;;;;7.68;100.00;97810.73;1698382;83;21050;-71
2022/04/03 01:20:53;;;;;;;7.07;4.13;;;;;;;7.67;100.00;97815.81;1692871;84;21053;-71
2022/04/03 01:23:21;;;;;;;5.63;4.20;;;;;;;7.60;100.00;97814.98;1687942;83;21558;-71
2022/04/03 01:25:48;;;;;;;6.20;4.10;;;;;;;7.56;100.00;97817.76;1721225;82;21546;-71
2022/04/03 01:28:16;;;;;;;7.27;4.57;;;;;;;7.53;100.00;97820.88;1716209;83;21038;-70
2022/04/03 01:30:43;;;;;;;7.03;4.53;;;;;;;7.48;100.00;97828.73;1698603;83;21109;-71
2022/04/03 01:33:10;;;;;;;8.67;5.00;;;;;;;7.43;100.00;97828.52;1723235;83;21524;-70
2022/04/03 01:35:38;;;;;;;8.93;5.30;;;;;;;7.36;100.00;97835.22;1723629;83;21106;-71
2022/04/03 01:38:06;;;;;;;10.60;5.67;;;;;;;7.32;100.00;97828.08;1699739;83;21112;-71
2022/04/03 01:40:36;;;;;;;11.20;5.87;;;;;;;7.31;100.00;97833.66;1724102;83;21031;-71
2022/04/03 01:43:04;;;;;;;10.53;5.20;;;;;;;7.28;100.00;97838.94;1724058;83;21538;-71
2022/04/03 01:45:31;;;;;;;10.57;5.47;;;;;;;7.27;100.00;97845.86;1700123;83;21097;-70
2022/04/03 01:48:00;;;;;;;11.43;5.67;;;;;;;7.23;100.00;97842.75;1696801;83;21099;-71
2022/04/03 01:50:27;;;;;;;9.80;5.50;;;;;;;7.23;100.00;97846.78;1717928;83;21117;-70
2022/04/03 01:52:55;;;;;;;10.00;5.63;;;;;;;7.22;100.00;97857.21;1698312;83;21042;-71
2022/04/03 01:57:55;;;;;;;9.60;5.27;;;;;;;7.17;100.00;97863.70;1639342;86;21497;-70
2022/04/03 02:00:24;;;;;;;9.03;5.50;;;;;;;7.16;100.00;97876.33;1661434;86;21157;-70
2022/04/03 02:02:51;;;;;;;8.93;5.03;;;;;;;7.16;100.00;97895.66;1628251;87;21030;-70
2022/04/03 02:05:18;;;;;;;12.73;6.13;;;;;;;7.14;100.00;97907.95;1656458;87;21042;-71
2022/04/03 02:07:46;;;;;;;12.27;6.27;;;;;;;7.11;100.00;97906.19;1629301;86;21092;-71
2022/04/03 02:10:13;;;;;;;9.90;5.67;;;;;;;7.09;100.00;97912.28;1660647;86;21117;-70
2022/04/03 02:12:43;;;;;;;8.03;5.10;;;;;;;7.10;100.00;97921.98;1660384;86;21070;-70
2022/04/03 02:15:11;;;;;;;9.63;5.43;;;;;;;7.11;100.00;97913.72;1647920;84;21000;-70
2022/04/03 02:17:40;;;;;;;11.33;5.70;;;;;;;7.09;100.00;97917.66;1691472;85;21098;-70
2022/04/03 02:20:09;;;;;;;10.60;5.70;;;;;;;7.06;100.00;97918.05;1691476;85;21054;-70
2022/04/03 02:22:38;;;;;;;11.17;5.83;;;;;;;7.00;100.00;97923.19;1691309;85;21058;-70
2022/04/03 02:25:09;;;;;;;11.93;5.73;;;;;;;7.00;100.00;97928.56;1635744;86;21593;-70
2022/04/03 02:27:38;;;;;;;13.50;6.50;;;;;;;7.00;100.00;97931.77;1668134;85;21066;-70
2022/04/03 02:30:09;;;;;;;12.33;6.20;;;;;;;7.03;100.00;97928.70;1691637;85;21007;-71
2022/04/03 02:32:38;;;;;;;12.73;6.07;;;;;;;7.06;100.00;97936.86;1682540;84;21043;-71
2022/04/03 02:35:06;;;;;;;13.07;6.43;;;;;;;7.07;100.00;97934.50;1688568;84;21059;-71
2022/04/03 02:37:38;;;;;;;16.20;6.97;;;;;;;7.07;100.00;97935.32;1665851;85;21066;-69
2022/04/03 02:40:08;;;;;;;13.90;7.00;;;;;;;7.07;100.00;97937.19;1637950;86;21130;-69
2022/04/03 02:42:36;;;;;;;14.63;6.93;;;;;;;7.04;100.00;97932.50;1692506;84;21062;-71
2022/04/03 02:45:05;;;;;;;13.57;6.93;;;;;;;7.02;100.00;97929.71;1635393;86;21582;-70
2022/04/03 02:47:34;;;;;;;16.17;7.10;;;;;;;7.02;100.00;97932.40;1647712;87;21033;-71
2022/04/03 02:50:01;;;;;;;13.57;6.63;;;;;;;7.00;100.00;97937.97;1572973;91;21138;-71
2022/04/03 02:52:28;;;;;;;15.20;6.90;;;;;;;7.01;100.00;97943.67;1574196;91;21182;-71
2022/04/03 02:54:56;;;;;;;13.93;6.80;;;;;;;7.02;100.00;97941.80;1602186;88;22303;-70
2022/04/03 02:57:24;;;;;;;16.23;7.17;;;;;;;7.05;100.00;97942.76;1635274;85;21098;-70
2022/04/03 02:59:52;;;;;;;17.13;7.60;;;;;;;7.07;100.00;97935.84;1634964;86;21602;-70
2022/04/03 03:02:19;;;;;;;13.87;6.93;;;;;;;7.09;100.00;97948.04;1674540;84;21049;-72
2022/04/03 03:04:48;;;;;;;12.10;6.13;;;;;;;7.11;100.00;97938.44;1697665;83;21043;-70
2022/04/03 03:07:16;;;;;;;10.50;6.20;;;;;;;7.10;100.00;97942.99;1690515;84;21059;-70
2022/04/03 03:09:43;;;;;;;13.93;6.70;;;;;;;7.06;100.00;97948.95;1669306;84;21066;-70
2022/04/03 03:12:12;;;;;;;11.53;6.20;;;;;;;7.05;100.00;97946.79;1667026;83;21136;-70
2022/04/03 03:14:41;;;;;;;12.13;6.17;;;;;;;7.07;100.00;97946.06;1689002;83;21015;-70
2022/04/03 03:17:08;;;;;;;12.03;6.33;;;;;;;7.06;100.00;97955.15;1690468;83;21027;-71
2022/04/03 03:19:35;;;;;;;11.93;5.57;;;;;;;7.04;100.00;97951.31;1684359;84;21003;-71
2022/04/03 03:22:04;;;;;;;12.37;5.87;;;;;;;7.06;100.00;97959.70;1679434;84;21091;-70
2022/04/03 03:24:31;;;;;;;10.70;5.70;;;;;;;7.03;100.00;97965.80;1679456;83;21051;-71
2022/04/03 03:27:00;;;;;;;8.83;5.33;;;;;;;6.98;100.00;97964.22;1657036;85;21044;-70
2022/04/03 03:29:29;;;;;;;8.00;4.83;;;;;;;6.99;100.00;97958.31;1689363;83;21030;-71
2022/04/03 03:31:57;;;;;;;8.93;5.33;;;;;;;7.00;100.00;97958.64;1689163;84;21113;-71
2022/04/03 03:34:25;;;;;;;7.70;4.93;;;;;;;7.01;100.00;97957.59;1665364;85;21066;-70
2022/04/03 03:36:54;;;;;;;6.87;4.80;;;;;;;7.01;100.00;97963.83;1686101;84;20990;-71
2022/04/03 03:39:21;;;;;;;8.33;4.87;;;;;;;7.03;100.00;97962.28;1682302;84;21055;-72
2022/04/03 03:41:49;;;;;;;8.90;4.80;;;;;;;7.01;100.00;97963.83;1666935;84;21614;-70
2022/04/03 03:44:17;;;;;;;6.10;4.33;;;;;;;7.00;100.00;97965.36;1683736;84;21079;-71
2022/04/03 03:46:45;;;;;;;9.97;5.20;;;;;;;7.00;100.00;97970.21;1722808;81;21062;-71
2022/04/03 03:49:14;;;;;;;7.40;4.57;;;;;;;7.00;100.00;97957.30;1805819;79;21011;-70
2022/04/03 03:51:41;;;;;;;8.17;4.60;;;;;;;6.99;100.00;97948.91;1785480;79;21039;-70
2022/04/03 03:54:09;;;;;;;9.73;4.97;;;;;;;6.97;100.00;97937.54;1784947;79;21089;-70
2022/04/03 03:56:37;;;;;;;10.07;5.00;;;;;;;6.94;100.00;97933.41;1749642;81;21033;-70
2022/04/03 03:59:08;;;;;;;8.27;4.40;;;;;;;6.92;100.00;97935.96;1725778;81;21037;-70
2022/04/03 04:01:36;;;;;;;7.77;4.93;;;;;;;6.86;100.00;97936.25;1750333;81;21081;-70
2022/04/03 04:04:03;;;;;;;8.23;4.60;;;;;;;6.78;100.00;97939.94;1715678;83;21091;-71
2022/04/03 04:06:30;;;;;;;9.07;4.63;;;;;;;6.71;100.00;97934.19;1685988;85;21042;-70
2022/04/03 04:08:59;;;;;;;8.00;4.20;;;;;;;6.66;100.00;97920.03;1684239;84;21062;-70
2022/04/03 04:11:27;;;;;;;7.23;4.47;;;;;;;6.64;100.00;97911.35;1709767;83;21089;-69
2022/04/03 04:13:55;;;;;;;7.47;4.60;;;;;;;6.61;100.00;97913.90;1684130;84;21034;-70
2022/04/03 04:16:22;;;;;;;6.83;4.27;;;;;;;6.60;100.00;97920.80;1682880;85;21118;-69
2022/04/03 04:18:49;;;;;;;7.03;4.40;;;;;;;6.57;100.00;97919.36;1686516;85;21049;-70
2022/04/03 04:21:17;;;;;;;7.27;4.27;;;;;;;6.54;100.00;97906.32;1684083;85;21105;-71
2022/04/03 04:23:44;;;;;;;7.20;4.73;;;;;;;6.50;100.00;97899.70;1683427;85;21015;-70
2022/04/03 04:26:12;;;;;;;7.07;4.50;;;;;;;6.50;100.00;97895.67;1726191;82;21105;-70
2022/04/03 04:28:40;;;;;;;10.23;4.80;;;;;;;6.50;100.00;97895.67;1683709;85;21070;-69
2022/04/03 04:31:07;;;;;;;11.37;5.47;;;;;;;6.51;100.00;97894.62;1723985;82;21109;-71
2022/04/03 04:33:35;;;;;;;10.13;4.73;;;;;;;6.54;100.00;97896.11;1713578;84;21042;-70
2022/04/03 04:36:06;;;;;;;9.93;5.20;;;;;;;6.57;100.00;97894.34;1687874;84;21046;-69
2022/04/03 04:38:32;;;;;;;7.60;4.53;;;;;;;6.61;100.00;97891.59;1677369;85;21061;-71
2022/04/03 04:40:59;;;;;;;7.23;4.33;;;;;;;6.63;100.00;97873.42;1741539;82;21037;-71
2022/04/03 04:43:26;;;;;;;6.03;4.20;;;;;;;6.62;100.00;97879.32;1749159;81;21613;-71
2022/04/03 04:45:55;;;;;;;8.77;4.83;;;;;;;6.56;100.00;97880.09;1751414;82;21033;-70
2022/04/03 04:48:22;;;;;;;7.63;4.90;;;;;;;6.53;100.00;97876.45;1747625;82;21041;-70
2022/04/03 04:50:51;;;;;;;8.33;4.80;;;;;;;6.54;100.00;97871.41;1730942;81;21056;-70
2022/04/03 04:53:18;;;;;;;10.17;5.00;;;;;;;6.56;100.00;97865.33;1711660;83;21028;-70
2022/04/03 04:55:45;;;;;;;11.30;5.03;;;;;;;6.60;100.00;97865.23;1710312;81;21092;-70
2022/04/03 04:58:13;;;;;;;9.23;5.20;;;;;;;6.60;100.00;97861.20;1679495;84;21568;-70
2022/04/03 05:00:40;;;;;;;8.87;4.80;;;;;;;6.64;100.00;97857.12;1674374;84;21098;-71
2022/04/03 05:03:07;;;;;;;8.23;5.03;;;;;;;6.67;100.00;97851.84;1699000;84;21063;-70
2022/04/03 05:05:35;;;;;;;8.10;4.70;;;;;;;6.71;100.00;97853.13;1698558;84;21028;-70
2022/04/03 05:08:04;;;;;;;7.63;4.93;;;;;;;6.71;100.00;97850.94;1702009;84;21071;-69
2022/04/03 05:10:33;;;;;;;8.50;5.10;;;;;;;6.67;100.00;97858.56;1681442;84;21043;-70
2022/04/03 05:13:01;;;;;;;8.43;5.10;;;;;;;6.67;100.00;97855.06;1709239;84;21067;-71
2022/04/03 05:15:31;;;;;;;10.50;5.37;;;;;;;6.64;100.00;97860.33;1702619;84;21552;-70
2022/04/03 05:17:58;;;;;;;11.10;5.40;;;;;;;6.60;100.00;97849.13;1679443;84;21024;-71
2022/04/03 05:20:27;;;;;;;11.83;5.30;;;;;;;6.55;100.00;97846.73;1700158;84;21078;-70
2022/04/03 05:22:54;;;;;;;10.00;5.53;;;;;;;6.56;100.00;97839.81;1699847;84;21501;-70
2022/04/03 05:25:21;;;;;;;10.17;5.53;;;;;;;6.60;100.00;97833.02;1698922;84;21028;-70
2022/04/03 05:27:48;;;;;;;8.40;5.00;;;;;;;6.65;100.00;97834.59;1699575;84;21087;-70
2022/04/03 05:30:15;;;;;;;7.40;5.00;;;;;;;6.73;100.00;97829.58;1700012;84;21595;-69
2022/04/03 05:32:43;;;;;;;8.27;4.97;;;;;;;6.75;100.00;97834.23;1678411;84;21119;-70
2022/04/03 05:35:10;;;;;;;7.67;4.87;;;;;;;6.74;100.00;97834.43;1680611;84;21091;-70
2022/04/03 05:37:39;;;;;;;8.80;4.90;;;;;;;6.74;100.00;97835.25;1671331;84;21049;-71
2022/04/03 05:40:11;;;;;;;8.17;5.00;;;;;;;6.76;100.00;97830.50;1696513;84;21063;-71
2022/04/03 05:42:37;;;;;;;11.40;6.17;;;;;;;6.79;100.00;97826.08;1698938;84;21548;-69
2022/04/03 05:45:07;;;;;;;7.13;4.60;;;;;;;6.86;100.00;97822.59;1677500;84;21088;-69
2022/04/03 05:47:34;;;;;;;8.13;5.40;;;;;;;6.89;100.00;97814.97;1698846;84;21023;-70
2022/04/03 05:50:05;;;;;;;7.57;4.60;;;;;;;6.92;100.00;97826.63;1699721;84;21041;-69
2022/04/03 05:52:48;;;;;;;12.00;5.80;;;;;;;6.97;100.00;97820.66;1705964;84;21027;-70
2022/04/03 05:55:16;;;;;;;;;;;;;;;7.01;100.00;97832.16;1655670;86;21058;-70
2022/04/03 05:57:47;;;;;;;8.27;4.73;;;;;;;7.04;100.00;97818.81;1654026;85;20126;-70
2022/04/03 06:00:15;;;;;;;11.47;5.00;;;;;;;7.03;100.00;97832.78;1648721;86;21083;-71
2022/04/03 06:02:49;;;;;;;9.13;5.40;;;;;;;7.03;100.00;97825.24;1654165;85;21083;-71
2022/04/03 06:05:22;;;;;;;12.00;6.00;;;;;;;7.02;100.00;97825.73;1711780;83;20990;-70
2022/04/03 06:07:50;;;;;;;11.63;5.70;;;;;;;7.03;100.00;97830.09;1701413;84;21044;-70
2022/04/03 06:10:19;;;;;;;12.90;6.23;;;;;;;7.07;100.00;97829.70;1667594;84;21112;-70
2022/04/03 06:13:05;;;;;;;11.07;5.97;;;;;;;7.11;100.00;97830.94;1690235;84;21062;-70
2022/04/03 06:15:43;;;;;;;12.00;6.17;;;;;;;7.13;100.00;97840.97;1687304;84;21128;-70
2022/04/03 06:18:12;;;;;;;11.90;6.37;;;;;;;7.12;100.00;97841.48;1668006;85;21030;-70
2022/04/03 06:20:40;;;;;;;13.67;6.73;;;;;;;7.12;100.00;97850.05;1669102;85;21547;-70
2022/04/03 06:23:13;;;;;;;13.57;7.10;;;;;;;7.15;100.00;97851.84;1653853;85;21083;-70
2022/04/03 06:25:40;;;;;;;16.50;7.23;;;;;;;7.20;100.00;97848.00;1670304;85;21058;-69
2022/04/03 06:28:07;;;;;;;20.67;10.57;;;;;;;7.27;100.00;97853.92;1670526;86;21599;-71
2022/04/03 06:30:35;;;;;;;23.77;12.30;;;;;;;7.30;100.00;97854.34;1667902;85;21144;-71
2022/04/03 06:33:02;;;;;;;20.03;10.97;;;;;;;7.38;100.00;97861.38;1692360;84;21618;-71
2022/04/03 06:35:30;;;;;;;23.93;12.47;;;;;;;7.41;100.00;97860.98;1668894;86;21538;-71
2022/04/03 06:37:57;;;;;;;22.93;11.50;;;;;;;7.44;100.00;97864.62;1692323;84;21049;-70
2022/04/03 06:40:24;;;;;;;20.97;11.43;;;;;;;7.48;100.00;97865.86;1692683;84;21041;-71
2022/04/03 06:42:52;;;;;;;24.17;12.97;;;;;;;7.56;100.00;97864.81;1668621;85;21542;-71
2022/04/03 06:45:20;;;;;;;21.53;11.83;;;;;;;7.70;100.00;97854.41;1669177;86;21033;-70
2022/04/03 06:47:47;;;;;;;18.77;11.07;;;;;;;7.85;100.00;97854.72;1667494;85;21117;-71
2022/04/03 06:50:15;;;;;;;21.07;12.30;;;;;;;7.93;100.00;97857.19;1696105;83;21062;-70
2022/04/03 06:52:43;;;;;;;24.70;14.50;;;;;;;7.97;100.00;97862.48;1675051;85;21066;-71
2022/04/03 06:55:11;;;;;;;27.90;16.43;;;;;;;7.94;100.00;97864.23;1661789;85;21038;-71
2022/04/03 06:57:39;;;;;;;26.57;15.87;;;;;;;7.92;100.00;97869.00;1678174;85;21098;-70
2022/04/03 07:00:08;;;;;;;25.90;15.13;;;;;;;7.91;100.00;97864.12;1701415;84;21095;-72
2022/04/03 07:02:35;;;;;;;27.20;17.43;;;;;;;7.95;100.00;97861.84;1752040;82;21038;-71
2022/04/03 07:05:04;;;;;;;29.77;18.93;;;;;;;7.96;100.00;97866.20;1718038;83;21038;-71
2022/04/03 07:07:32;;;;;;;35.10;21.03;;;;;;;7.94;100.00;97870.44;1720443;83;21109;-71
2022/04/03 07:10:01;;;;;;;34.90;21.90;;;;;;;7.93;100.00;97868.80;1720797;83;21010;-71
2022/04/03 07:12:28;;;;;;;35.98;21.93;;;;;;;7.94;100.00;97868.27;1721275;83;21107;-70
2022/04/03 07:14:57;;;;;;;36.97;22.17;;;;;;;7.89;100.00;97862.68;1757168;81;21091;-70
2022/04/03 07:17:25;;;;;;;35.47;22.60;;;;;;;7.91;100.00;97871.38;1772899;80;21079;-71
2022/04/03 07:19:52;;;;;;;37.60;22.77;;;;;;;7.92;100.00;97872.52;1774355;80;21036;-71
2022/04/03 07:22:19;;;;;;;34.97;22.07;;;;;;;7.93;100.00;97871.49;1751097;81;21063;-71
2022/04/03 07:24:47;;;;;;;35.83;20.07;;;;;;;7.94;100.00;97860.20;1743265;81;21059;-71
2022/04/03 07:27:15;;;;;;;30.77;17.60;;;;;;;7.99;100.00;97853.16;1771526;80;21098;-74
2022/04/03 07:29:42;;;;;;;28.27;16.67;;;;;;;8.03;100.00;97854.91;1775636;81;21067;-69
2022/04/03 07:32:10;;;;;;;28.20;15.87;;;;;;;8.03;100.00;97862.16;1775076;80;21107;-71
2022/04/03 07:34:37;;;;;;;28.40;15.72;;;;;;;7.98;100.00;97869.02;1770562;81;21055;-71
2022/04/03 07:37:05;;;;;;;28.50;14.97;;;;;;;8.03;100.00;97868.89;1765597;80;21079;-69
2022/04/03 07:39:32;;;;;;;25.17;14.73;;;;;;;8.09;100.00;97871.59;1772237;81;21040;-69
2022/04/03 07:42:01;;;;;;;25.73;14.93;;;;;;;8.12;100.00;97871.67;1777557;80;21076;-70
2022/04/03 07:44:28;;;;;;;22.30;13.70;;;;;;;8.13;100.00;97874.69;1770228;80;21533;-70
2022/04/03 07:46:55;;;;;;;25.17;14.43;;;;;;;8.15;100.00;97886.08;1776274;81;20981;-70
2022/04/03 07:49:22;;;;;;;25.57;14.90;;;;;;;8.15;100.00;97889.59;1750560;81;21025;-70
2022/04/03 07:51:49;;;;;;;24.33;13.63;;;;;;;8.11;100.00;97897.78;1776416;80;21040;-70
2022/04/03 07:54:17;;;;;;;22.60;13.30;;;;;;;8.12;100.00;97899.41;1777783;80;21095;-70
2022/04/03 07:56:44;;;;;;;21.53;12.70;;;;;;;8.16;100.00;97893.95;1796322;79;20976;-70
2022/04/03 07:59:11;;;;;;;23.73;12.43;;;;;;;8.28;100.00;97887.39;1808135;79;21013;-69
2022/04/03 08:01:38;;;;;;;22.90;13.40;;;;;;;8.43;100.00;97879.63;1811912;79;21532;-70
2022/04/03 08:04:09;;;;;;;24.27;13.50;;;;;;;8.58;100.00;97872.67;1807953;79;21058;-70
2022/04/03 08:06:36;;;;;;;25.53;13.80;;;;;;;8.58;100.00;97874.84;1807551;79;21031;-71
2022/04/03 08:09:05;;;;;;;22.87;12.63;;;;;;;8.66;100.00;97877.84;1807500;79;21047;-70
2022/04/03 08:11:34;;;;;;;21.67;11.97;;;;;;;8.79;100.00;97880.48;1807627;79;21104;-70
2022/04/03 08:14:03;;;;;;;21.40;11.90;;;;;;;8.92;100.00;97888.53;1789497;79;21726;-70
2022/04/03 08:16:31;;;;;;;18.43;10.13;;;;;;;9.00;100.00;97900.94;1721576;82;21024;-70
2022/04/03 08:19:00;;;;;;;20.67;11.43;;;;;;;8.92;100.00;97918.68;1746968;82;21059;-70
2022/04/03 08:21:27;;;;;;;20.12;10.78;;;;;;;8.92;100.00;97934.36;1748111;82;21070;-70
2022/04/03 08:23:55;;;;;;;18.02;10.03;;;;;;;8.97;100.00;97927.48;1746975;82;21028;-71
2022/04/03 08:26:26;;;;;;;17.63;10.40;;;;;;;8.98;100.00;97933.17;1724798;82;21106;-71
2022/04/03 08:28:51;;;;;;;16.00;9.95;;;;;;;8.88;100.00;97943.88;1807920;79;21023;-69
2022/04/03 08:31:19;;;;;;;17.67;10.03;;;;;;;8.87;100.00;97946.29;1713424;82;21072;-70
2022/04/03 08:33:47;;;;;;;17.07;8.97;;;;;;;8.85;100.00;97947.02;1719335;83;21560;-71
2022/04/03 08:36:16;;;;;;;16.17;9.30;;;;;;;8.80;100.00;97950.87;1736903;82;21061;-69
2022/04/03 08:38:44;;;;;;;16.03;9.80;;;;;;;8.79;100.00;97951.08;1678647;85;21554;-70
2022/04/03 08:41:12;;;;;;;17.97;10.87;;;;;;;8.67;100.00;97956.27;1682247;85;21512;-69
2022/04/03 08:43:42;;;;;;;18.03;10.67;;;;;;;8.58;100.00;97958.87;1711690;84;21555;-69
2022/04/03 08:46:10;;;;;;;16.53;9.80;;;;;;;8.51;100.00;97951.61;1711429;84;20992;-70
2022/04/03 08:48:39;;;;;;;17.10;10.03;;;;;;;8.53;100.00;97954.95;1685054;84;21039;-69
2022/04/03 08:51:06;;;;;;;16.42;10.10;;;;;;;8.58;100.00;97947.58;1673763;83;21062;-71
2022/04/03 08:53:33;;;;;;;17.65;10.43;;;;;;;8.59;100.00;97949.73;1702733;84;21106;-70
2022/04/03 08:56:00;;;;;;;16.53;9.37;;;;;;;8.56;100.00;97953.70;1643927;87;21063;-70
2022/04/03 08:58:28;;;;;;;16.90;9.13;;;;;;;8.52;100.00;97956.50;1688505;84;21601;-70
2022/04/03 09:00:56;;;;;;;13.85;8.43;;;;;;;8.47;100.00;97964.38;1685816;85;21074;-70
2022/04/03 09:03:25;;;;;;;14.03;8.50;;;;;;;8.42;100.00;97960.10;1719562;81;21057;-70
2022/04/03 09:05:52;;;;;;;14.57;8.47;;;;;;;8.39;100.00;97960.51;1722950;81;21037;-70
2022/04/03 09:08:19;;;;;;;16.53;8.83;;;;;;;8.30;100.00;97961.23;1751646;82;21045;-71
2022/04/03 09:11:07;;;;;;;15.37;8.47;;;;;;;8.22;100.00;97962.81;1752096;81;21030;-70
2022/04/03 09:13:36;;;;;;;14.87;8.57;;;;;;;8.15;100.00;97958.23;1748313;81;21061;-70
2022/04/03 09:16:07;;;;;;;14.98;8.65;;;;;;;8.15;100.00;97958.23;1665502;85;21116;-70
2022/04/03 09:18:51;;;;;;;15.30;8.58;;;;;;;8.16;100.00;97951.83;1688469;84;21097;-70
2022/04/03 09:21:24;;;;;;;;;;;;;;;8.14;100.00;97945.83;1690366;84;21086;-70
2022/04/03 09:24:11;;;;;;;17.27;9.20;;;;;;;8.14;100.00;97937.75;1685772;84;20115;-70
2022/04/03 09:26:39;;;;;;;18.03;9.17;;;;;;;8.12;100.00;97933.06;1685929;85;21558;-70
2022/04/03 09:29:15;;;;;;;18.00;9.00;;;;;;;8.07;100.00;97928.81;1685789;85;21098;-70
2022/04/03 09:31:46;;;;;;;18.83;9.13;;;;;;;8.06;100.00;97927.70;1686034;84;21547;-69
2022/04/03 09:34:20;;;;;;;18.60;9.73;;;;;;;8.02;100.00;97923.25;1686170;85;21030;-69
2022/04/03 09:37:01;;;;;;;17.10;9.63;;;;;;;8.00;100.00;97907.80;1692371;84;21030;-69
2022/04/03 09:39:30;;;;;;;20.40;11.23;;;;;;;7.98;100.00;97905.34;1693092;83;21554;-70
2022/04/03 09:42:05;;;;;;;19.20;10.87;;;;;;;7.93;100.00;97894.37;1694881;84;21065;-70
2022/04/03 09:44:39;;;;;;;19.00;10.90;;;;;;;7.87;100.00;97874.99;1683913;83;20998;-70
2022/04/03 09:47:27;;;;;;;17.97;10.03;;;;;;;7.84;100.00;97859.78;1689012;84;21057;-70
2022/04/03 09:49:58;;;;;;;18.83;10.37;;;;;;;7.83;100.00;97853.58;1686006;85;21483;-70
2022/04/03 09:52:40;;;;;;;19.13;9.63;;;;;;;7.83;100.00;97848.20;1685986;85;21042;-70
2022/04/03 09:55:22;;;;;;;17.17;9.37;;;;;;;7.86;100.00;97837.53;1710557;84;21575;-69
2022/04/03 09:58:05;;;;;;;36.70;23.97;;;;;;;7.88;100.00;97830.92;1665628;85;21515;-70
2022/04/03 10:03:06;;;;;;;16.53;9.23;;;;;;;7.84;100.00;97836.91;1577626;89;21031;-70
2022/04/03 10:05:36;;;;;;;17.80;9.00;;;;;;;7.77;100.00;97845.83;1562729;89;21606;-69
2022/04/03 10:08:06;;;;;;;18.23;10.47;;;;;;;7.74;100.00;97844.89;1578607;90;21054;-70
2022/04/03 10:10:35;;;;;;;37.80;25.40;;;;;;;7.72;100.00;97845.62;1589447;89;21070;-69
2022/04/03 10:13:05;;;;;;;24.37;16.50;;;;;;;7.71;100.00;97842.60;1583159;88;21067;-69
2022/04/03 10:15:32;;;;;;;38.20;28.77;;;;;;;7.72;100.00;97835.34;1633338;87;21118;-70
2022/04/03 10:18:01;;;;;;;31.93;24.03;;;;;;;7.68;100.00;97831.42;1626687;88;21110;-70
2022/04/03 10:20:30;;;;;;;25.97;19.20;;;;;;;7.65;100.00;97838.55;1635891;88;21601;-69
2022/04/03 10:23:02;;;;;;;20.37;13.00;;;;;;;7.62;100.00;97843.02;1638264;87;21625;-69
2022/04/03 10:25:35;;;;;;;24.00;15.47;;;;;;;7.57;100.00;97843.11;1621170;87;21666;-69
2022/04/03 10:28:05;;;;;;;19.37;11.67;;;;;;;7.57;100.00;97850.35;1632028;87;21562;-69
2022/04/03 10:30:43;;;;;;;17.23;9.53;;;;;;;7.52;100.00;97852.83;1636241;87;21038;-69
2022/04/03 10:33:10;;;;;;;16.60;8.70;;;;;;;7.46;100.00;97847.76;1614349;88;21633;-69
2022/04/03 10:35:43;;;;;;;15.97;9.40;;;;;;;7.37;100.00;97854.37;1632680;88;21176;-69
2022/04/03 10:38:10;;;;;;;19.63;11.57;;;;;;;7.29;100.00;97850.52;1625539;88;21511;-69
2022/04/03 10:40:38;;;;;;;16.47;9.67;;;;;;;7.25;100.00;97854.13;1634771;87;21090;-69
2022/04/03 10:45:47;;;;;;;18.40;10.83;;;;;;;7.19;100.00;97839.64;1567357;90;21091;-69
2022/04/03 10:51:12;;;;;;;30.13;19.30;;;;;;;7.26;100.00;97828.06;1496186;95;21196;-69
2022/04/03 10:53:43;;;;;;;31.93;18.53;;;;;;;7.20;100.00;97829.19;1477993;95;21070;-70
2022/04/03 10:56:24;;;;;;;38.08;21.10;;;;;;;7.16;100.00;97825.78;1508125;93;21087;-67
2022/04/03 10:58:54;;;;;;;33.93;19.63;;;;;;;7.15;100.00;97818.73;1518463;91;21131;-69
2022/04/03 11:01:30;;;;;;;36.20;23.73;;;;;;;7.15;100.00;97814.22;1558204;91;21053;-69
2022/04/03 11:04:01;;;;;;;33.23;20.07;;;;;;;7.13;100.00;97802.81;1560576;91;21172;-70
2022/04/03 11:06:31;;;;;;;33.37;19.90;;;;;;;7.13;100.00;97801.99;1589966;90;21138;-69
2022/04/03 11:09:15;;;;;;;33.33;19.67;;;;;;;7.13;100.00;97797.96;1584611;90;21558;-71
2022/04/03 11:11:48;;;;;;;27.93;16.80;;;;;;;7.17;100.00;97789.30;1529761;92;21564;-69
2022/04/03 11:14:52;;;;;;;26.53;15.80;;;;;;;7.23;100.00;97780.93;1542597;93;21580;-69
2022/04/03 11:17:48;;;;;;;25.92;14.60;;;;;;;7.29;100.00;97773.38;1543583;93;21159;-68
2022/04/03 11:20:42;;;;;;;28.17;16.67;;;;;;;7.38;100.00;97759.22;1543539;92;21139;-69
2022/04/03 11:23:14;;;;;;;30.23;17.03;;;;;;;7.46;100.00;97744.23;1542220;92;21107;-69
2022/04/03 11:25:42;;;;;;;29.53;17.97;;;;;;;7.54;100.00;97740.00;1503293;95;21170;-70
2022/04/03 11:28:09;;;;;;;28.63;17.20;;;;;;;7.63;100.00;97739.77;1503066;95;21088;-69
2022/04/03 11:30:37;;;;;;;28.20;17.43;;;;;;;7.69;100.00;97741.64;1512505;94;21157;-69
2022/04/03 11:33:04;;;;;;;29.07;17.70;;;;;;;7.69;100.00;97747.84;1503255;95;21166;-69
2022/04/03 11:35:33;;;;;;;34.03;19.43;;;;;;;7.69;100.00;97751.05;1510514;93;21104;-69
2022/04/03 11:38:01;;;;;;;32.67;19.17;;;;;;;7.66;100.00;97741.52;1511920;94;21154;-68
2022/04/03 11:40:29;;;;;;;28.93;17.60;;;;;;;7.69;100.00;97737.08;1505597;95;21166;-68
2022/04/03 11:43:19;;;;;;;30.53;18.20;;;;;;;7.72;100.00;97750.61;1542517;92;21102;-69
2022/04/03 11:45:57;;;;;;;33.20;20.90;;;;;;;7.74;100.00;97770.09;1555734;92;21059;-69